sensor_id;sensor_type;location;lat;lon;timestamp;temperature;humidity
2190;DHT22;1101;51.056;7.262;2023-02-15T00:01:41;3.30;99.90
2190;DHT22;1101;51.056;7.262;2023-02-15T00:04:12;3.30;99.90
2190;DHT22;1101;51.056;7.262;2023-02-15T00:06:40;3.30;99.90
2190;DHT22;1101;51.056;7.262;2023-02-15T00:09:08;3.30;99.90
2190;DHT22;1101;51.056;7.262;2023-02-15T00:11:36;3.30;99.90
2190;DHT22;1101;51.056;7.262;2023-02-15T00:14:09;3.20;99.90
2190;DHT22;1101;51.056;7.262;2023-02-15T00:16:39;3.20;99.90
2190;DHT22;1101;51.056;7.262;2023-02-15T00:26:47;3.20;99.90
2190;DHT22;1101;51.056;7.262;2023-02-15T00:36:47;3.20;99.90
2190;DHT22;1101;51.056;7.262;2023-02-15T00:39:16;3.20;99.90
2190;DHT22;1101;51.056;7.262;2023-02-15T00:41:45;3.20;99.90
2190;DHT22;1101;51.056;7.262;2023-02-15T00:44:13;3.20;99.90
2190;DHT22;1101;51.056;7.262;2023-02-15T00:46:41;3.20;99.90
2190;DHT22;1101;51.056;7.262;2023-02-15T00:49:10;3.10;99.90
2190;DHT22;1101;51.056;7.262;2023-02-15T00:51:38;3.20;99.90
2190;DHT22;1101;51.056;7.262;2023-02-15T00:54:07;3.10;99.90
2190;DHT22;1101;51.056;7.262;2023-02-15T00:56:35;3.10;99.90
2190;DHT22;1101;51.056;7.262;2023-02-15T00:59:02;3.10;99.90
2190;DHT22;1101;51.056;7.262;2023-02-15T01:01:30;3.10;99.90
2190;DHT22;1101;51.056;7.262;2023-02-15T01:03:58;3.10;99.90
2190;DHT22;1101;51.056;7.262;2023-02-15T01:06:26;3.00;99.90
2190;DHT22;1101;51.056;7.262;2023-02-15T01:08:54;3.00;99.90
2190;DHT22;1101;51.056;7.262;2023-02-15T01:11:23;3.00;99.90
2190;DHT22;1101;51.056;7.262;2023-02-15T01:13:52;3.00;99.90
2190;DHT22;1101;51.056;7.262;2023-02-15T01:16:21;3.00;99.90
2190;DHT22;1101;51.056;7.262;2023-02-15T01:18:49;3.00;99.90
2190;DHT22;1101;51.056;7.262;2023-02-15T01:21:18;2.90;99.90
2190;DHT22;1101;51.056;7.262;2023-02-15T01:23:47;2.90;99.90
2190;DHT22;1101;51.056;7.262;2023-02-15T01:26:16;2.90;99.90
2190;DHT22;1101;51.056;7.262;2023-02-15T01:28:45;2.90;99.90
2190;DHT22;1101;51.056;7.262;2023-02-15T01:31:14;2.80;99.90
2190;DHT22;1101;51.056;7.262;2023-02-15T01:33:43;2.80;99.90
2190;DHT22;1101;51.056;7.262;2023-02-15T01:36:11;2.80;99.90
2190;DHT22;1101;51.056;7.262;2023-02-15T01:38:39;2.80;99.90
2190;DHT22;1101;51.056;7.262;2023-02-15T01:41:07;2.80;99.90
2190;DHT22;1101;51.056;7.262;2023-02-15T01:43:52;2.80;99.90
2190;DHT22;1101;51.056;7.262;2023-02-15T01:46:23;2.70;99.90
2190;DHT22;1101;51.056;7.262;2023-02-15T01:48:55;2.70;99.90
2190;DHT22;1101;51.056;7.262;2023-02-15T01:51:24;2.60;99.90
2190;DHT22;1101;51.056;7.262;2023-02-15T01:53:57;2.60;99.90
2190;DHT22;1101;51.056;7.262;2023-02-15T01:56:29;2.60;99.90
2190;DHT22;1101;51.056;7.262;2023-02-15T01:59:02;2.60;99.90
2190;DHT22;1101;51.056;7.262;2023-02-15T02:01:31;2.60;99.90
2190;DHT22;1101;51.056;7.262;2023-02-15T02:04:02;2.60;99.90
2190;DHT22;1101;51.056;7.262;2023-02-15T02:06:33;2.60;99.90
2190;DHT22;1101;51.056;7.262;2023-02-15T02:09:03;2.60;99.90
2190;DHT22;1101;51.056;7.262;2023-02-15T02:11:31;2.60;99.90
2190;DHT22;1101;51.056;7.262;2023-02-15T02:14:01;2.60;99.90
2190;DHT22;1101;51.056;7.262;2023-02-15T02:16:35;2.60;99.90
2190;DHT22;1101;51.056;7.262;2023-02-15T02:19:31;2.50;99.90
2190;DHT22;1101;51.056;7.262;2023-02-15T02:22:21;2.50;99.90
2190;DHT22;1101;51.056;7.262;2023-02-15T02:25:23;2.50;99.90
2190;DHT22;1101;51.056;7.262;2023-02-15T02:28:03;2.50;99.90
2190;DHT22;1101;51.056;7.262;2023-02-15T02:33:35;2.50;99.90
2190;DHT22;1101;51.056;7.262;2023-02-15T02:36:19;2.40;99.90
2190;DHT22;1101;51.056;7.262;2023-02-15T02:39:04;2.40;99.90
2190;DHT22;1101;51.056;7.262;2023-02-15T02:41:38;2.50;99.90
2190;DHT22;1101;51.056;7.262;2023-02-15T02:44:13;2.40;99.90
2190;DHT22;1101;51.056;7.262;2023-02-15T02:46:49;2.40;99.90
2190;DHT22;1101;51.056;7.262;2023-02-15T02:49:33;2.30;99.90
2190;DHT22;1101;51.056;7.262;2023-02-15T02:52:02;2.30;99.90
2190;DHT22;1101;51.056;7.262;2023-02-15T02:54:30;2.30;99.90
2190;DHT22;1101;51.056;7.262;2023-02-15T02:57:01;2.30;99.90
2190;DHT22;1101;51.056;7.262;2023-02-15T02:59:33;2.20;99.90
2190;DHT22;1101;51.056;7.262;2023-02-15T03:02:05;2.20;99.90
2190;DHT22;1101;51.056;7.262;2023-02-15T03:04:44;2.10;99.90
2190;DHT22;1101;51.056;7.262;2023-02-15T03:07:17;2.10;99.90
2190;DHT22;1101;51.056;7.262;2023-02-15T03:09:50;2.10;99.90
2190;DHT22;1101;51.056;7.262;2023-02-15T03:12:21;2.10;99.90
2190;DHT22;1101;51.056;7.262;2023-02-15T03:14:54;2.10;99.90
2190;DHT22;1101;51.056;7.262;2023-02-15T03:17:26;2.10;99.90
2190;DHT22;1101;51.056;7.262;2023-02-15T03:19:59;2.10;99.90
2190;DHT22;1101;51.056;7.262;2023-02-15T03:22:33;2.00;99.90
2190;DHT22;1101;51.056;7.262;2023-02-15T03:25:05;2.10;99.90
2190;DHT22;1101;51.056;7.262;2023-02-15T03:27:39;2.00;99.90
2190;DHT22;1101;51.056;7.262;2023-02-15T03:30:09;2.00;99.90
2190;DHT22;1101;51.056;7.262;2023-02-15T03:32:39;2.00;99.90
2190;DHT22;1101;51.056;7.262;2023-02-15T03:35:08;2.00;99.90
2190;DHT22;1101;51.056;7.262;2023-02-15T03:37:40;1.90;99.90
2190;DHT22;1101;51.056;7.262;2023-02-15T03:40:12;1.90;99.90
2190;DHT22;1101;51.056;7.262;2023-02-15T03:43:05;1.90;99.90
2190;DHT22;1101;51.056;7.262;2023-02-15T03:45:39;1.80;99.90
2190;DHT22;1101;51.056;7.262;2023-02-15T03:48:24;1.80;99.90
2190;DHT22;1101;51.056;7.262;2023-02-15T03:50:57;1.80;99.90
2190;DHT22;1101;51.056;7.262;2023-02-15T03:53:46;1.80;99.90
2190;DHT22;1101;51.056;7.262;2023-02-15T03:56:14;1.70;99.90
2190;DHT22;1101;51.056;7.262;2023-02-15T03:58:42;1.70;99.90
2190;DHT22;1101;51.056;7.262;2023-02-15T04:01:51;1.70;99.90
2190;DHT22;1101;51.056;7.262;2023-02-15T04:04:28;1.60;99.90
2190;DHT22;1101;51.056;7.262;2023-02-15T04:06:58;1.60;99.90
2190;DHT22;1101;51.056;7.262;2023-02-15T04:09:26;1.60;99.90
2190;DHT22;1101;51.056;7.262;2023-02-15T04:12:11;1.60;99.90
2190;DHT22;1101;51.056;7.262;2023-02-15T04:14:39;1.50;99.90
2190;DHT22;1101;51.056;7.262;2023-02-15T04:17:24;1.50;99.90
2190;DHT22;1101;51.056;7.262;2023-02-15T04:19:52;1.50;99.90
2190;DHT22;1101;51.056;7.262;2023-02-15T04:22:39;1.50;99.90
2190;DHT22;1101;51.056;7.262;2023-02-15T04:25:24;1.50;99.90
2190;DHT22;1101;51.056;7.262;2023-02-15T04:27:54;1.50;99.90
2190;DHT22;1101;51.056;7.262;2023-02-15T04:30:23;1.50;99.90
2190;DHT22;1101;51.056;7.262;2023-02-15T04:32:51;1.50;99.90
2190;DHT22;1101;51.056;7.262;2023-02-15T04:35:20;1.40;99.90
2190;DHT22;1101;51.056;7.262;2023-02-15T04:37:50;1.40;99.90
2190;DHT22;1101;51.056;7.262;2023-02-15T04:40:18;1.40;99.90
2190;DHT22;1101;51.056;7.262;2023-02-15T04:42:47;1.40;99.90
2190;DHT22;1101;51.056;7.262;2023-02-15T04:45:15;1.40;99.90
2190;DHT22;1101;51.056;7.262;2023-02-15T04:47:43;1.40;99.90
2190;DHT22;1101;51.056;7.262;2023-02-15T04:50:11;1.40;99.90
2190;DHT22;1101;51.056;7.262;2023-02-15T04:52:39;1.40;99.90
2190;DHT22;1101;51.056;7.262;2023-02-15T04:55:08;1.40;99.90
2190;DHT22;1101;51.056;7.262;2023-02-15T04:57:36;1.30;99.90
2190;DHT22;1101;51.056;7.262;2023-02-15T05:00:05;1.30;99.90
2190;DHT22;1101;51.056;7.262;2023-02-15T05:02:34;1.30;99.90
2190;DHT22;1101;51.056;7.262;2023-02-15T05:05:03;1.30;99.90
2190;DHT22;1101;51.056;7.262;2023-02-15T05:07:31;1.20;99.90
2190;DHT22;1101;51.056;7.262;2023-02-15T05:09:59;1.20;99.90
2190;DHT22;1101;51.056;7.262;2023-02-15T05:12:28;1.20;99.90
2190;DHT22;1101;51.056;7.262;2023-02-15T05:14:56;1.20;99.90
2190;DHT22;1101;51.056;7.262;2023-02-15T05:17:23;1.20;99.90
2190;DHT22;1101;51.056;7.262;2023-02-15T05:19:51;1.20;99.90
2190;DHT22;1101;51.056;7.262;2023-02-15T05:22:19;1.20;99.90
2190;DHT22;1101;51.056;7.262;2023-02-15T05:24:46;1.20;99.90
2190;DHT22;1101;51.056;7.262;2023-02-15T05:27:33;1.10;99.90
2190;DHT22;1101;51.056;7.262;2023-02-15T05:30:24;1.10;99.90
2190;DHT22;1101;51.056;7.262;2023-02-15T05:32:52;1.10;99.90
2190;DHT22;1101;51.056;7.262;2023-02-15T05:35:20;1.10;99.90
2190;DHT22;1101;51.056;7.262;2023-02-15T05:37:48;1.10;99.90
2190;DHT22;1101;51.056;7.262;2023-02-15T05:40:15;1.00;99.90
2190;DHT22;1101;51.056;7.262;2023-02-15T05:42:45;1.00;99.90
2190;DHT22;1101;51.056;7.262;2023-02-15T05:45:12;1.00;99.90
2190;DHT22;1101;51.056;7.262;2023-02-15T05:47:40;1.00;99.90
2190;DHT22;1101;51.056;7.262;2023-02-15T05:50:09;1.00;99.90
2190;DHT22;1101;51.056;7.262;2023-02-15T05:52:37;1.00;99.90
2190;DHT22;1101;51.056;7.262;2023-02-15T05:55:06;1.00;99.90
2190;DHT22;1101;51.056;7.262;2023-02-15T05:57:35;1.00;99.90
2190;DHT22;1101;51.056;7.262;2023-02-15T06:00:05;0.90;99.90
2190;DHT22;1101;51.056;7.262;2023-02-15T06:02:35;0.90;99.90
2190;DHT22;1101;51.056;7.262;2023-02-15T06:05:03;0.90;99.90
2190;DHT22;1101;51.056;7.262;2023-02-15T06:07:31;0.90;99.90
2190;DHT22;1101;51.056;7.262;2023-02-15T06:09:58;0.90;99.90
2190;DHT22;1101;51.056;7.262;2023-02-15T06:12:26;0.90;99.90
2190;DHT22;1101;51.056;7.262;2023-02-15T06:14:54;0.90;99.90
2190;DHT22;1101;51.056;7.262;2023-02-15T06:17:23;0.90;99.90
2190;DHT22;1101;51.056;7.262;2023-02-15T06:19:51;0.80;99.90
2190;DHT22;1101;51.056;7.262;2023-02-15T06:22:19;0.90;99.90
2190;DHT22;1101;51.056;7.262;2023-02-15T06:24:47;0.80;99.90
2190;DHT22;1101;51.056;7.262;2023-02-15T06:27:14;0.80;99.90
2190;DHT22;1101;51.056;7.262;2023-02-15T06:29:42;0.80;99.90
2190;DHT22;1101;51.056;7.262;2023-02-15T06:32:10;0.80;99.90
2190;DHT22;1101;51.056;7.262;2023-02-15T06:34:39;0.70;99.90
2190;DHT22;1101;51.056;7.262;2023-02-15T06:37:07;0.70;99.90
2190;DHT22;1101;51.056;7.262;2023-02-15T06:39:35;0.70;99.90
2190;DHT22;1101;51.056;7.262;2023-02-15T06:42:03;0.70;99.90
2190;DHT22;1101;51.056;7.262;2023-02-15T06:44:31;0.70;99.90
2190;DHT22;1101;51.056;7.262;2023-02-15T06:46:58;0.70;99.90
2190;DHT22;1101;51.056;7.262;2023-02-15T06:49:26;0.70;99.90
2190;DHT22;1101;51.056;7.262;2023-02-15T06:51:55;0.60;99.90
2190;DHT22;1101;51.056;7.262;2023-02-15T06:54:23;0.70;99.90
2190;DHT22;1101;51.056;7.262;2023-02-15T06:56:51;0.70;99.90
2190;DHT22;1101;51.056;7.262;2023-02-15T06:59:18;0.70;99.90
2190;DHT22;1101;51.056;7.262;2023-02-15T07:01:46;0.70;99.90
2190;DHT22;1101;51.056;7.262;2023-02-15T07:04:15;0.70;99.90
2190;DHT22;1101;51.056;7.262;2023-02-15T07:06:43;0.70;99.90
2190;DHT22;1101;51.056;7.262;2023-02-15T07:09:13;0.70;99.90
2190;DHT22;1101;51.056;7.262;2023-02-15T07:11:42;0.80;99.90
2190;DHT22;1101;51.056;7.262;2023-02-15T07:14:27;0.90;99.90
2190;DHT22;1101;51.056;7.262;2023-02-15T07:16:55;0.80;99.90
2190;DHT22;1101;51.056;7.262;2023-02-15T07:19:23;0.80;99.90
2190;DHT22;1101;51.056;7.262;2023-02-15T07:21:51;0.90;99.90
2190;DHT22;1101;51.056;7.262;2023-02-15T07:24:20;0.90;99.90
2190;DHT22;1101;51.056;7.262;2023-02-15T07:26:47;0.90;99.90
2190;DHT22;1101;51.056;7.262;2023-02-15T07:29:15;0.90;99.90
2190;DHT22;1101;51.056;7.262;2023-02-15T07:31:43;0.90;99.90
2190;DHT22;1101;51.056;7.262;2023-02-15T07:34:12;1.00;99.90
2190;DHT22;1101;51.056;7.262;2023-02-15T07:36:39;1.00;99.90
2190;DHT22;1101;51.056;7.262;2023-02-15T07:39:07;1.00;99.90
2190;DHT22;1101;51.056;7.262;2023-02-15T07:41:36;1.10;99.90
2190;DHT22;1101;51.056;7.262;2023-02-15T07:44:04;1.10;99.90
2190;DHT22;1101;51.056;7.262;2023-02-15T07:46:32;1.20;99.90
2190;DHT22;1101;51.056;7.262;2023-02-15T07:49:00;1.20;99.90
2190;DHT22;1101;51.056;7.262;2023-02-15T07:51:28;1.20;99.90
2190;DHT22;1101;51.056;7.262;2023-02-15T07:53:56;1.30;99.90
2190;DHT22;1101;51.056;7.262;2023-02-15T07:56:23;1.30;99.90
2190;DHT22;1101;51.056;7.262;2023-02-15T07:58:53;1.30;99.90
2190;DHT22;1101;51.056;7.262;2023-02-15T08:01:25;1.40;99.90
2190;DHT22;1101;51.056;7.262;2023-02-15T08:03:54;1.40;99.90
2190;DHT22;1101;51.056;7.262;2023-02-15T08:06:24;1.50;99.90
2190;DHT22;1101;51.056;7.262;2023-02-15T08:08:52;1.60;99.90
2190;DHT22;1101;51.056;7.262;2023-02-15T08:11:22;1.60;99.90
2190;DHT22;1101;51.056;7.262;2023-02-15T08:13:55;1.70;99.90
2190;DHT22;1101;51.056;7.262;2023-02-15T08:16:27;1.70;99.90
2190;DHT22;1101;51.056;7.262;2023-02-15T08:18:56;1.70;99.90
2190;DHT22;1101;51.056;7.262;2023-02-15T08:21:26;1.80;99.90
2190;DHT22;1101;51.056;7.262;2023-02-15T08:23:55;1.80;99.90
2190;DHT22;1101;51.056;7.262;2023-02-15T08:26:24;1.90;99.90
2190;DHT22;1101;51.056;7.262;2023-02-15T08:28:51;2.00;99.90
2190;DHT22;1101;51.056;7.262;2023-02-15T08:31:20;2.10;99.90
2190;DHT22;1101;51.056;7.262;2023-02-15T08:33:51;2.10;99.90
2190;DHT22;1101;51.056;7.262;2023-02-15T08:36:22;2.20;99.90
2190;DHT22;1101;51.056;7.262;2023-02-15T08:38:50;2.20;99.90
2190;DHT22;1101;51.056;7.262;2023-02-15T08:41:19;2.30;99.90
2190;DHT22;1101;51.056;7.262;2023-02-15T08:43:48;2.30;99.90
2190;DHT22;1101;51.056;7.262;2023-02-15T08:46:18;2.40;99.90
2190;DHT22;1101;51.056;7.262;2023-02-15T08:48:47;2.40;99.90
2190;DHT22;1101;51.056;7.262;2023-02-15T08:51:17;2.50;99.90
2190;DHT22;1101;51.056;7.262;2023-02-15T08:53:46;2.50;99.90
2190;DHT22;1101;51.056;7.262;2023-02-15T08:56:17;2.60;99.90
2190;DHT22;1101;51.056;7.262;2023-02-15T08:58:45;2.60;99.90
2190;DHT22;1101;51.056;7.262;2023-02-15T09:01:15;2.70;99.90
2190;DHT22;1101;51.056;7.262;2023-02-15T09:03:47;2.80;99.90
2190;DHT22;1101;51.056;7.262;2023-02-15T09:06:16;2.80;99.90
2190;DHT22;1101;51.056;7.262;2023-02-15T09:08:44;2.90;99.90
2190;DHT22;1101;51.056;7.262;2023-02-15T09:11:15;2.90;99.90
2190;DHT22;1101;51.056;7.262;2023-02-15T09:13:49;3.00;99.90
2190;DHT22;1101;51.056;7.262;2023-02-15T09:16:19;3.10;99.90
2190;DHT22;1101;51.056;7.262;2023-02-15T09:18:48;3.10;99.90
2190;DHT22;1101;51.056;7.262;2023-02-15T09:21:18;3.20;99.90
2190;DHT22;1101;51.056;7.262;2023-02-15T09:23:48;3.20;99.90
2190;DHT22;1101;51.056;7.262;2023-02-15T09:26:17;3.30;99.90
2190;DHT22;1101;51.056;7.262;2023-02-15T09:28:46;3.30;99.90
2190;DHT22;1101;51.056;7.262;2023-02-15T09:31:16;3.40;99.90
2190;DHT22;1101;51.056;7.262;2023-02-15T09:33:45;3.40;99.90
2190;DHT22;1101;51.056;7.262;2023-02-15T09:36:17;3.50;99.90
2190;DHT22;1101;51.056;7.262;2023-02-15T09:38:45;3.50;99.90
2190;DHT22;1101;51.056;7.262;2023-02-15T09:44:16;3.70;99.90
2190;DHT22;1101;51.056;7.262;2023-02-15T09:46:59;3.80;99.90
2190;DHT22;1101;51.056;7.262;2023-02-15T09:49:36;3.90;99.90
2190;DHT22;1101;51.056;7.262;2023-02-15T09:52:38;3.90;99.90
2190;DHT22;1101;51.056;7.262;2023-02-15T09:55:24;4.10;99.90
2190;DHT22;1101;51.056;7.262;2023-02-15T09:58:03;4.20;99.90
2190;DHT22;1101;51.056;7.262;2023-02-15T10:00:39;4.20;99.90
2190;DHT22;1101;51.056;7.262;2023-02-15T10:03:19;4.30;99.90
2190;DHT22;1101;51.056;7.262;2023-02-15T10:05:58;4.40;99.90
2190;DHT22;1101;51.056;7.262;2023-02-15T10:08:40;4.50;99.90
2190;DHT22;1101;51.056;7.262;2023-02-15T10:11:16;4.50;99.90
2190;DHT22;1101;51.056;7.262;2023-02-15T10:14:13;4.70;99.90
2190;DHT22;1101;51.056;7.262;2023-02-15T10:16:50;4.80;99.90
2190;DHT22;1101;51.056;7.262;2023-02-15T10:19:26;4.90;99.90
2190;DHT22;1101;51.056;7.262;2023-02-15T10:22:07;4.90;99.90
2190;DHT22;1101;51.056;7.262;2023-02-15T10:27:19;5.10;99.90
2190;DHT22;1101;51.056;7.262;2023-02-15T10:29:56;5.20;99.90
2190;DHT22;1101;51.056;7.262;2023-02-15T10:32:32;5.20;99.90
2190;DHT22;1101;51.056;7.262;2023-02-15T10:35:13;5.30;99.90
2190;DHT22;1101;51.056;7.262;2023-02-15T10:37:52;5.40;99.90
2190;DHT22;1101;51.056;7.262;2023-02-15T10:40:30;5.50;99.90
2190;DHT22;1101;51.056;7.262;2023-02-15T10:43:12;5.50;99.90
2190;DHT22;1101;51.056;7.262;2023-02-15T10:45:52;5.70;99.90
2190;DHT22;1101;51.056;7.262;2023-02-15T10:51:25;5.90;99.90
2190;DHT22;1101;51.056;7.262;2023-02-15T10:54:14;6.00;99.90
2190;DHT22;1101;51.056;7.262;2023-02-15T10:56:51;6.10;99.90
2190;DHT22;1101;51.056;7.262;2023-02-15T10:59:35;6.20;99.90
2190;DHT22;1101;51.056;7.262;2023-02-15T11:02:12;6.30;99.90
2190;DHT22;1101;51.056;7.262;2023-02-15T11:04:50;6.40;99.90
2190;DHT22;1101;51.056;7.262;2023-02-15T11:07:23;6.60;99.90
2190;DHT22;1101;51.056;7.262;2023-02-15T11:09:55;6.70;99.90
2190;DHT22;1101;51.056;7.262;2023-02-15T11:12:27;6.80;99.90
2190;DHT22;1101;51.056;7.262;2023-02-15T11:15:01;6.90;99.90
2190;DHT22;1101;51.056;7.262;2023-02-15T11:17:35;7.00;99.90
2190;DHT22;1101;51.056;7.262;2023-02-15T11:20:09;7.20;99.90
2190;DHT22;1101;51.056;7.262;2023-02-15T11:22:43;7.20;99.90
2190;DHT22;1101;51.056;7.262;2023-02-15T11:25:18;7.30;99.90
2190;DHT22;1101;51.056;7.262;2023-02-15T11:27:48;7.40;99.90
2190;DHT22;1101;51.056;7.262;2023-02-15T11:30:21;7.60;99.90
2190;DHT22;1101;51.056;7.262;2023-02-15T11:32:52;7.60;99.90
2190;DHT22;1101;51.056;7.262;2023-02-15T11:35:26;7.70;99.90
2190;DHT22;1101;51.056;7.262;2023-02-15T11:37:59;7.70;99.90
2190;DHT22;1101;51.056;7.262;2023-02-15T11:40:30;7.80;99.90
2190;DHT22;1101;51.056;7.262;2023-02-15T11:43:03;7.90;99.90
2190;DHT22;1101;51.056;7.262;2023-02-15T11:45:34;8.00;99.90
2190;DHT22;1101;51.056;7.262;2023-02-15T11:48:09;8.10;99.90
2190;DHT22;1101;51.056;7.262;2023-02-15T11:50:38;8.20;99.90
2190;DHT22;1101;51.056;7.262;2023-02-15T11:53:10;8.20;99.90
2190;DHT22;1101;51.056;7.262;2023-02-15T11:55:40;8.30;99.90
2190;DHT22;1101;51.056;7.262;2023-02-15T11:58:25;8.40;99.90
2190;DHT22;1101;51.056;7.262;2023-02-15T12:01:01;8.50;99.90
2190;DHT22;1101;51.056;7.262;2023-02-15T12:03:42;8.60;99.90
2190;DHT22;1101;51.056;7.262;2023-02-15T12:06:16;8.70;99.90
2190;DHT22;1101;51.056;7.262;2023-02-15T12:08:51;8.80;99.90
2190;DHT22;1101;51.056;7.262;2023-02-15T12:11:25;8.80;99.90
2190;DHT22;1101;51.056;7.262;2023-02-15T12:13:55;8.90;99.90
2190;DHT22;1101;51.056;7.262;2023-02-15T12:16:25;9.00;99.90
2190;DHT22;1101;51.056;7.262;2023-02-15T12:18:58;9.10;99.90
2190;DHT22;1101;51.056;7.262;2023-02-15T12:21:31;9.10;99.90
2190;DHT22;1101;51.056;7.262;2023-02-15T12:24:03;9.20;99.90
2190;DHT22;1101;51.056;7.262;2023-02-15T12:26:37;9.30;99.90
2190;DHT22;1101;51.056;7.262;2023-02-15T12:29:16;9.40;99.90
2190;DHT22;1101;51.056;7.262;2023-02-15T12:31:47;9.40;99.90
2190;DHT22;1101;51.056;7.262;2023-02-15T12:34:21;9.50;99.90
2190;DHT22;1101;51.056;7.262;2023-02-15T12:36:52;9.60;99.90
2190;DHT22;1101;51.056;7.262;2023-02-15T12:39:25;9.60;99.90
2190;DHT22;1101;51.056;7.262;2023-02-15T12:42:00;9.70;99.90
2190;DHT22;1101;51.056;7.262;2023-02-15T12:44:30;9.80;99.90
2190;DHT22;1101;51.056;7.262;2023-02-15T12:47:02;9.80;99.90
2190;DHT22;1101;51.056;7.262;2023-02-15T12:49:31;9.90;99.90
2190;DHT22;1101;51.056;7.262;2023-02-15T12:52:01;10.00;99.90
2190;DHT22;1101;51.056;7.262;2023-02-15T12:54:32;10.00;99.90
2190;DHT22;1101;51.056;7.262;2023-02-15T12:57:14;10.10;99.90
2190;DHT22;1101;51.056;7.262;2023-02-15T12:59:49;10.10;99.90
2190;DHT22;1101;51.056;7.262;2023-02-15T13:02:23;10.20;99.90
2190;DHT22;1101;51.056;7.262;2023-02-15T13:04:52;10.30;99.90
2190;DHT22;1101;51.056;7.262;2023-02-15T13:07:21;10.30;99.90
2190;DHT22;1101;51.056;7.262;2023-02-15T13:09:50;10.40;99.90
2190;DHT22;1101;51.056;7.262;2023-02-15T13:12:20;10.50;99.90
2190;DHT22;1101;51.056;7.262;2023-02-15T13:14:51;10.50;99.90
2190;DHT22;1101;51.056;7.262;2023-02-15T13:17:25;10.60;99.90
2190;DHT22;1101;51.056;7.262;2023-02-15T13:19:58;10.60;99.90
2190;DHT22;1101;51.056;7.262;2023-02-15T13:22:33;10.60;99.90
2190;DHT22;1101;51.056;7.262;2023-02-15T13:25:05;10.70;99.90
2190;DHT22;1101;51.056;7.262;2023-02-15T13:27:38;10.70;99.80
2190;DHT22;1101;51.056;7.262;2023-02-15T13:30:17;10.80;99.80
2190;DHT22;1101;51.056;7.262;2023-02-15T13:32:51;10.80;99.80
2190;DHT22;1101;51.056;7.262;2023-02-15T13:35:20;10.90;99.80
2190;DHT22;1101;51.056;7.262;2023-02-15T13:38:30;10.90;99.70
2190;DHT22;1101;51.056;7.262;2023-02-15T13:41:30;10.90;99.70
2190;DHT22;1101;51.056;7.262;2023-02-15T13:47:34;11.00;99.70
2190;DHT22;1101;51.056;7.262;2023-02-15T13:50:38;11.10;99.80
2190;DHT22;1101;51.056;7.262;2023-02-15T13:53:25;11.10;99.80
2190;DHT22;1101;51.056;7.262;2023-02-15T13:56:01;11.20;99.80
2190;DHT22;1101;51.056;7.262;2023-02-15T14:01:30;11.30;99.80
2190;DHT22;1101;51.056;7.262;2023-02-15T14:04:11;11.30;99.70
2190;DHT22;1101;51.056;7.262;2023-02-15T14:07:03;11.30;99.70
2190;DHT22;1101;51.056;7.262;2023-02-15T14:09:43;11.40;99.70
2190;DHT22;1101;51.056;7.262;2023-02-15T14:12:24;11.40;99.70
2190;DHT22;1101;51.056;7.262;2023-02-15T14:15:13;11.40;99.70
2190;DHT22;1101;51.056;7.262;2023-02-15T14:17:53;11.40;99.60
2190;DHT22;1101;51.056;7.262;2023-02-15T14:20:27;11.50;99.60
2190;DHT22;1101;51.056;7.262;2023-02-15T14:23:05;11.40;99.50
2190;DHT22;1101;51.056;7.262;2023-02-15T14:25:40;11.50;99.60
2190;DHT22;1101;51.056;7.262;2023-02-15T14:28:14;11.50;99.50
2190;DHT22;1101;51.056;7.262;2023-02-15T14:30:46;11.60;99.60
2190;DHT22;1101;51.056;7.262;2023-02-15T14:33:31;11.60;99.50
2190;DHT22;1101;51.056;7.262;2023-02-15T14:36:03;11.60;99.50
2190;DHT22;1101;51.056;7.262;2023-02-15T14:38:47;11.60;99.40
2190;DHT22;1101;51.056;7.262;2023-02-15T14:41:23;11.60;99.30
2190;DHT22;1101;51.056;7.262;2023-02-15T14:43:58;11.60;99.30
2190;DHT22;1101;51.056;7.262;2023-02-15T14:46:33;11.60;99.20
2190;DHT22;1101;51.056;7.262;2023-02-15T14:49:06;11.60;99.20
2190;DHT22;1101;51.056;7.262;2023-02-15T14:51:54;11.50;99.10
2190;DHT22;1101;51.056;7.262;2023-02-15T14:54:56;11.40;99.00
2190;DHT22;1101;51.056;7.262;2023-02-15T14:57:30;11.30;98.90
2190;DHT22;1101;51.056;7.262;2023-02-15T15:02:52;11.20;98.80
2190;DHT22;1101;51.056;7.262;2023-02-15T15:05:23;11.20;98.70
2190;DHT22;1101;51.056;7.262;2023-02-15T15:07:54;11.10;98.70
2190;DHT22;1101;51.056;7.262;2023-02-15T15:10:47;11.10;98.70
2190;DHT22;1101;51.056;7.262;2023-02-15T15:16:30;11.00;98.70
2190;DHT22;1101;51.056;7.262;2023-02-15T15:18:59;10.90;98.70
2190;DHT22;1101;51.056;7.262;2023-02-15T15:21:52;10.90;98.70
2190;DHT22;1101;51.056;7.262;2023-02-15T15:24:45;10.80;98.60
2190;DHT22;1101;51.056;7.262;2023-02-15T15:27:40;10.80;98.70
2190;DHT22;1101;51.056;7.262;2023-02-15T15:42:49;10.50;98.60
2190;DHT22;1101;51.056;7.262;2023-02-15T15:45:38;10.50;98.60
2190;DHT22;1101;51.056;7.262;2023-02-15T15:48:31;10.40;98.50
2190;DHT22;1101;51.056;7.262;2023-02-15T15:51:02;10.40;98.50
2190;DHT22;1101;51.056;7.262;2023-02-15T15:53:37;10.30;98.50
2190;DHT22;1101;51.056;7.262;2023-02-15T15:56:12;10.30;98.50
2190;DHT22;1101;51.056;7.262;2023-02-15T15:58:46;10.20;98.50
2190;DHT22;1101;51.056;7.262;2023-02-15T16:01:15;10.10;98.50
2190;DHT22;1101;51.056;7.262;2023-02-15T16:03:52;10.10;98.50
2190;DHT22;1101;51.056;7.262;2023-02-15T16:06:35;10.10;98.50
2190;DHT22;1101;51.056;7.262;2023-02-15T16:09:12;10.00;98.40
2190;DHT22;1101;51.056;7.262;2023-02-15T16:11:40;9.90;99.00
2190;DHT22;1101;51.056;7.262;2023-02-15T16:14:16;9.90;99.00
2190;DHT22;1101;51.056;7.262;2023-02-15T16:16:49;9.80;99.20
2190;DHT22;1101;51.056;7.262;2023-02-15T16:19:22;9.80;99.00
2190;DHT22;1101;51.056;7.262;2023-02-15T16:21:50;9.70;99.00
2190;DHT22;1101;51.056;7.262;2023-02-15T16:24:25;9.60;99.00
2190;DHT22;1101;51.056;7.262;2023-02-15T16:29:53;9.50;99.00
2190;DHT22;1101;51.056;7.262;2023-02-15T16:32:22;9.40;98.90
2190;DHT22;1101;51.056;7.262;2023-02-15T16:34:52;9.40;99.00
2190;DHT22;1101;51.056;7.262;2023-02-15T16:37:22;9.30;98.90
2190;DHT22;1101;51.056;7.262;2023-02-15T16:39:53;9.20;98.90
2190;DHT22;1101;51.056;7.262;2023-02-15T16:42:22;9.20;98.90
2190;DHT22;1101;51.056;7.262;2023-02-15T16:44:56;9.10;98.90
2190;DHT22;1101;51.056;7.262;2023-02-15T16:47:29;9.00;98.90
2190;DHT22;1101;51.056;7.262;2023-02-15T16:50:00;8.90;98.90
2190;DHT22;1101;51.056;7.262;2023-02-15T16:52:29;8.90;98.90
2190;DHT22;1101;51.056;7.262;2023-02-15T16:54:58;8.80;98.90
2190;DHT22;1101;51.056;7.262;2023-02-15T16:57:29;8.80;98.90
2190;DHT22;1101;51.056;7.262;2023-02-15T17:00:03;8.70;98.90
2190;DHT22;1101;51.056;7.262;2023-02-15T17:02:33;8.70;98.90
2190;DHT22;1101;51.056;7.262;2023-02-15T17:05:22;8.60;98.90
2190;DHT22;1101;51.056;7.262;2023-02-15T17:08:03;8.50;98.90
2190;DHT22;1101;51.056;7.262;2023-02-15T17:10:33;8.40;98.90
2190;DHT22;1101;51.056;7.262;2023-02-15T17:13:03;8.40;98.90
2190;DHT22;1101;51.056;7.262;2023-02-15T17:15:35;8.30;98.90
2190;DHT22;1101;51.056;7.262;2023-02-15T17:18:05;8.20;98.90
2190;DHT22;1101;51.056;7.262;2023-02-15T17:20:34;8.20;99.00
2190;DHT22;1101;51.056;7.262;2023-02-15T17:23:03;8.10;99.10
2190;DHT22;1101;51.056;7.262;2023-02-15T17:25:37;8.00;99.10
2190;DHT22;1101;51.056;7.262;2023-02-15T17:28:05;8.00;99.10
2190;DHT22;1101;51.056;7.262;2023-02-15T17:30:44;7.90;99.10
2190;DHT22;1101;51.056;7.262;2023-02-15T17:33:21;7.90;99.20
2190;DHT22;1101;51.056;7.262;2023-02-15T17:36:07;7.80;99.20
2190;DHT22;1101;51.056;7.262;2023-02-15T17:38:37;7.80;99.50
2190;DHT22;1101;51.056;7.262;2023-02-15T17:41:05;7.70;99.20
2190;DHT22;1101;51.056;7.262;2023-02-15T17:43:32;7.60;99.20
2190;DHT22;1101;51.056;7.262;2023-02-15T17:46:02;7.60;99.20
2190;DHT22;1101;51.056;7.262;2023-02-15T17:48:32;7.50;99.20